Time;durP1;ratioP1;P1;durP2;ratioP2;P2;SDS_P1;SDS_P2;PMS_P1;PMS_P2;Temp;Humidity;BMP_temperature;BMP_pressure;BME280_temperature;BME280_humidity;BME280_pressure;Samples;Min_cycle;Max_cycle;Signal;HPM_P1;HPM_P2
2023/12/17 00:00:40;;;;;;;55.70;29.93;;;;;;;-144.30;100.00;86899.66;5109760;28;20198;-53
2023/12/17 00:03:07;;;;;;;52.93;29.13;;;;;;;-144.30;100.00;86927.47;5109907;28;20302;-53
2023/12/17 00:05:34;;;;;;;54.13;28.60;;;;;;;-144.30;100.00;86915.56;5110132;28;20284;-59
2023/12/17 00:08:01;;;;;;;52.87;28.63;;;;;;;-144.30;100.00;86913.56;5109980;28;20204;-59
2023/12/17 00:10:28;;;;;;;54.73;29.83;;;;;;;-144.30;100.00;86875.78;5109850;28;20286;-58
2023/12/17 00:12:55;;;;;;;63.27;31.27;;;;;;;-144.30;100.00;86889.69;5109730;28;20296;-58
2023/12/17 00:15:22;;;;;;;58.40;30.37;;;;;;;-144.30;100.00;86929.47;5109554;28;20276;-58
2023/12/17 00:17:50;;;;;;;57.50;28.80;;;;;;;-144.30;100.00;86927.47;5109658;28;20375;-54
2023/12/17 00:20:17;;;;;;;58.40;28.77;;;;;;;-144.30;100.00;86919.53;5109548;28;20193;-53
2023/12/17 00:22:44;;;;;;;55.73;28.67;;;;;;;-144.30;100.00;86935.44;5109814;28;20275;-53
2023/12/17 00:25:11;;;;;;;55.63;29.93;;;;;;;-144.30;100.00;86909.59;5109813;28;20223;-54
2023/12/17 00:27:38;;;;;;;50.33;26.87;;;;;;;-144.30;100.00;86915.56;5109961;28;20202;-54
2023/12/17 00:30:06;;;;;;;53.70;30.07;;;;;;;-144.30;100.00;86883.72;5109927;28;20192;-59
2023/12/17 00:32:33;;;;;;;57.97;30.03;;;;;;;-144.30;100.00;86909.59;5109785;28;20303;-54
2023/12/17 00:35:01;;;;;;;57.87;29.07;;;;;;;-144.30;100.00;86913.56;5109587;28;20209;-56
2023/12/17 00:37:28;;;;;;;58.60;30.50;;;;;;;-144.30;100.00;86933.44;5109933;28;20232;-53
2023/12/17 00:39:55;;;;;;;58.93;30.30;;;;;;;-144.30;100.00;86923.50;5109654;28;20191;-54
2023/12/17 00:42:22;;;;;;;60.80;30.27;;;;;;;-144.30;100.00;86885.72;5109320;28;20272;-59
2023/12/17 00:44:49;;;;;;;57.13;30.67;;;;;;;-144.30;100.00;86939.41;5109392;28;20200;-53
2023/12/17 00:47:16;;;;;;;68.07;34.93;;;;;;;-144.30;100.00;86939.41;5109611;28;20655;-54
2023/12/17 00:49:43;;;;;;;67.13;34.60;;;;;;;-144.30;100.00;86927.47;5109482;28;20207;-53
2023/12/17 00:52:11;;;;;;;83.03;39.70;;;;;;;-144.30;100.00;86919.53;5109484;28;20283;-56
2023/12/17 00:54:38;;;;;;;80.37;37.53;;;;;;;-144.30;100.00;86917.53;5109363;28;20223;-56
2023/12/17 00:57:05;;;;;;;78.37;35.87;;;;;;;-144.30;100.00;86935.44;5109397;28;20193;-60
2023/12/17 00:59:32;;;;;;;72.53;34.83;;;;;;;-144.30;100.00;86935.44;5110641;28;20196;-54
2023/12/17 01:01:59;;;;;;;65.63;33.10;;;;;;;-144.30;100.00;86925.50;5113246;28;20573;-54
2023/12/17 01:04:26;;;;;;;62.33;30.87;;;;;;;-144.30;100.00;86929.47;5113449;28;20632;-59
2023/12/17 01:06:53;;;;;;;53.73;28.33;;;;;;;-144.30;100.00;86973.22;5113119;28;20288;-53
2023/12/17 01:09:22;;;;;;;54.80;28.17;;;;;;;-144.30;100.00;86923.50;5112992;28;20200;-53
2023/12/17 01:11:49;;;;;;;56.43;27.77;;;;;;;-144.30;100.00;86939.41;5112995;28;20203;-53
2023/12/17 01:14:16;;;;;;;49.67;25.40;;;;;;;-144.30;100.00;86927.47;5112688;28;20322;-54
2023/12/17 01:16:42;;;;;;;46.27;24.73;;;;;;;-144.30;100.00;86923.50;5113030;28;20222;-53
2023/12/17 01:19:09;;;;;;;55.23;25.73;;;;;;;-144.30;100.00;86947.38;5112957;28;20198;-59
2023/12/17 01:21:37;;;;;;;55.37;26.07;;;;;;;-144.30;100.00;86945.38;5112831;28;20196;-59
2023/12/17 01:24:04;;;;;;;57.37;25.97;;;;;;;-144.30;100.00;86949.38;5112588;28;20197;-59
2023/12/17 01:26:32;;;;;;;50.07;24.73;;;;;;;-144.30;100.00;86939.41;5112695;28;20567;-59
2023/12/17 01:28:59;;;;;;;50.87;24.07;;;;;;;-144.30;100.00;86961.28;5112809;28;20226;-60
2023/12/17 01:31:26;;;;;;;51.23;25.50;;;;;;;-144.30;100.00;86951.34;5112369;28;20199;-53
2023/12/17 01:33:53;;;;;;;58.03;24.90;;;;;;;-144.30;100.00;86963.28;5112479;28;20229;-53
2023/12/17 01:36:20;;;;;;;56.63;25.80;;;;;;;-144.30;100.00;86945.38;5112413;28;20281;-53
2023/12/17 01:38:47;;;;;;;55.57;25.17;;;;;;;-144.30;100.00;86935.44;5112451;28;20207;-53
2023/12/17 01:41:14;;;;;;;64.93;24.80;;;;;;;-144.30;100.00;86943.41;5111779;28;20236;-53
2023/12/17 01:43:42;;;;;;;58.07;25.23;;;;;;;-144.30;100.00;86931.47;5112445;28;20228;-53
2023/12/17 01:46:10;;;;;;;84.27;26.97;;;;;;;-144.30;100.00;86939.41;5112464;28;20296;-52
2023/12/17 01:48:37;;;;;;;61.73;27.53;;;;;;;-144.30;100.00;86961.28;5112221;28;20199;-54
2023/12/17 01:51:05;;;;;;;84.10;30.93;;;;;;;-144.30;100.00;86975.22;5111829;28;20197;-53
2023/12/17 01:53:32;;;;;;;84.43;32.23;;;;;;;-144.30;100.00;86945.38;5111753;28;20237;-59
2023/12/17 01:55:59;;;;;;;73.50;30.63;;;;;;;-144.30;100.00;86939.41;5112300;28;20666;-59
2023/12/17 01:58:27;;;;;;;61.07;28.30;;;;;;;-144.30;100.00;86967.25;5112004;28;20201;-59
2023/12/17 02:00:57;;;;;;;53.87;26.33;;;;;;;-144.30;100.00;86945.38;5111822;28;20201;-59
2023/12/17 02:03:24;;;;;;;57.20;26.17;;;;;;;-144.30;100.00;86961.28;5111936;28;20625;-53
2023/12/17 02:05:51;;;;;;;50.10;26.37;;;;;;;-144.30;100.00;86971.25;5111949;28;20205;-54
2023/12/17 02:08:18;;;;;;;54.87;26.70;;;;;;;-144.30;100.00;86939.41;5111698;28;20285;-59
2023/12/17 02:10:45;;;;;;;54.33;26.63;;;;;;;-144.30;100.00;86983.19;5111266;28;20191;-59
2023/12/17 02:13:14;;;;;;;61.30;26.43;;;;;;;-144.30;100.00;86951.34;5111802;28;20619;-59
2023/12/17 02:15:41;;;;;;;50.13;24.43;;;;;;;-144.30;100.00;86529.75;5111933;28;20671;-58
2023/12/17 02:18:10;;;;;;;58.20;26.87;;;;;;;-144.30;100.00;86995.09;5111713;28;20199;-53
2023/12/17 02:20:37;;;;;;;68.23;24.57;;;;;;;-144.30;100.00;86969.25;5111408;28;20201;-53
2023/12/17 02:23:05;;;;;;;52.73;24.50;;;;;;;-144.30;100.00;86927.47;5111697;28;20623;-55
2023/12/17 02:25:32;;;;;;;54.33;24.87;;;;;;;-144.30;100.00;86973.22;5111567;28;20291;-58
2023/12/17 02:28:00;;;;;;;47.80;22.27;;;;;;;-144.30;100.00;86957.31;5111678;28;20218;-52
2023/12/17 02:30:27;;;;;;;43.97;22.03;;;;;;;-144.30;100.00;86957.31;5111403;28;20233;-58
2023/12/17 02:32:54;;;;;;;39.60;21.60;;;;;;;-144.30;100.00;86967.25;5111427;28;20678;-53
2023/12/17 02:35:22;;;;;;;52.00;20.93;;;;;;;-144.30;100.00;86927.47;5110835;28;20310;-57
2023/12/17 02:37:49;;;;;;;60.17;21.17;;;;;;;-144.30;100.00;86967.25;5111259;28;20191;-59
2023/12/17 02:40:18;;;;;;;43.80;19.50;;;;;;;-144.30;100.00;86947.38;5111192;28;20199;-59
2023/12/17 02:42:45;;;;;;;41.70;20.17;;;;;;;-144.30;100.00;86967.25;5070945;28;20206;-59
2023/12/17 02:45:12;;;;;;;40.13;19.30;;;;;;;-144.30;100.00;86999.09;5070563;28;20211;-53
2023/12/17 02:47:40;;;;;;;52.13;19.07;;;;;;;-144.30;100.00;86967.25;5070318;28;20279;-54
2023/12/17 02:50:07;;;;;;;53.60;19.60;;;;;;;-144.30;100.00;86951.34;5070116;28;20199;-51
2023/12/17 02:52:34;;;;;;;48.70;20.03;;;;;;;-144.30;100.00;86989.13;5070478;28;20188;-52
2023/12/17 02:55:01;;;;;;;51.37;20.53;;;;;;;-144.30;100.00;86965.28;5070326;28;20219;-59
2023/12/17 02:57:29;;;;;;;45.97;21.00;;;;;;;-144.30;100.00;86973.22;5070374;28;20202;-58
2023/12/17 02:59:56;;;;;;;44.40;19.57;;;;;;;-144.30;100.00;86979.19;5070691;28;20200;-59
2023/12/17 03:02:23;;;;;;;34.97;18.40;;;;;;;-144.30;100.00;86967.25;5069448;28;20590;-59
2023/12/17 03:04:50;;;;;;;31.97;17.30;;;;;;;-144.30;100.00;86951.34;5070053;28;20192;-58
2023/12/17 03:07:18;;;;;;;27.10;15.60;;;;;;;-144.30;100.00;86961.28;5070046;28;20664;-58
2023/12/17 03:09:45;;;;;;;32.37;16.57;;;;;;;-144.30;100.00;86967.25;5070245;28;20650;-58
2023/12/17 03:12:12;;;;;;;30.23;16.77;;;;;;;-144.30;100.00;86961.28;5070033;28;20294;-53
2023/12/17 03:14:40;;;;;;;24.77;15.10;;;;;;;-144.30;100.00;86999.09;5069984;28;20648;-53
2023/12/17 03:17:07;;;;;;;30.40;15.57;;;;;;;-144.30;100.00;86949.38;5069654;28;20689;-54
2023/12/17 03:19:34;;;;;;;28.50;15.60;;;;;;;-144.30;100.00;87018.97;5069780;28;20192;-53
2023/12/17 03:22:01;;;;;;;27.17;14.40;;;;;;;-144.30;100.00;86885.72;5069426;28;20206;-59
2023/12/17 03:24:28;;;;;;;24.47;14.50;;;;;;;-144.30;100.00;86963.28;5069240;28;20198;-59
2023/12/17 03:26:55;;;;;;;26.47;16.00;;;;;;;-144.30;100.00;87030.91;5069830;28;20231;-58
2023/12/17 03:29:22;;;;;;;31.37;15.50;;;;;;;-144.30;100.00;86967.25;5069537;28;20279;-59
2023/12/17 03:31:50;;;;;;;27.27;15.03;;;;;;;-144.30;100.00;86919.53;5070090;28;20228;-59
2023/12/17 03:34:17;;;;;;;26.67;15.07;;;;;;;-144.30;100.00;86989.13;5069924;28;20699;-53
2023/12/17 03:36:44;;;;;;;23.50;14.87;;;;;;;-144.30;100.00;86981.19;5069717;28;20192;-54
2023/12/17 03:39:13;;;;;;;22.53;14.33;;;;;;;-144.30;100.00;87001.06;5069505;28;20204;-59
2023/12/17 03:41:40;;;;;;;26.20;14.60;;;;;;;-144.30;100.00;87018.97;5092247;28;20226;-58
2023/12/17 03:44:06;;;;;;;24.70;14.83;;;;;;;-144.30;100.00;87001.06;5110016;28;20186;-53
2023/12/17 03:46:34;;;;;;;25.17;15.03;;;;;;;-144.30;100.00;86979.19;5110328;28;20655;-59
2023/12/17 03:49:02;;;;;;;26.03;15.17;;;;;;;-144.30;100.00;86975.22;5110142;28;20202;-53
2023/12/17 03:51:29;;;;;;;21.67;14.07;;;;;;;-144.30;100.00;86983.19;5109971;28;20198;-53
2023/12/17 03:53:56;;;;;;;23.33;13.77;;;;;;;-144.30;100.00;86991.13;5109880;28;20611;-58
2023/12/17 03:56:24;;;;;;;25.37;14.13;;;;;;;-144.30;100.00;87011.03;5109680;28;20288;-53
2023/12/17 03:58:51;;;;;;;24.97;15.23;;;;;;;-144.30;100.00;86993.13;5110078;28;20674;-52
2023/12/17 04:01:17;;;;;;;22.63;14.10;;;;;;;-144.30;100.00;86979.19;5109926;28;20224;-53
2023/12/17 04:03:44;;;;;;;26.07;15.33;;;;;;;-144.30;100.00;87024.94;5109876;28;20645;-53
2023/12/17 04:06:13;;;;;;;25.30;15.13;;;;;;;-144.30;100.00;87001.06;5109673;28;20222;-53
2023/12/17 04:08:40;;;;;;;27.00;15.97;;;;;;;-144.30;100.00;86971.25;5109851;28;20190;-54
2023/12/17 04:11:07;;;;;;;27.27;16.63;;;;;;;-144.30;100.00;86981.19;5109655;28;20194;-53
2023/12/17 04:13:34;;;;;;;24.43;16.40;;;;;;;-144.30;100.00;86989.13;5110221;28;20194;-53
2023/12/17 04:16:01;;;;;;;29.00;17.17;;;;;;;-144.30;100.00;86979.19;5109941;28;20219;-58
2023/12/17 04:18:28;;;;;;;29.40;17.93;;;;;;;-144.30;100.00;86979.19;5110010;28;20198;-58
2023/12/17 04:20:54;;;;;;;31.90;17.67;;;;;;;-144.30;100.00;86981.19;5104923;28;20211;-53
2023/12/17 04:23:23;;;;;;;25.93;16.60;;;;;;;-144.30;100.00;87003.06;5109535;28;20203;-53
2023/12/17 04:25:50;;;;;;;30.57;16.50;;;;;;;-144.30;100.00;86975.22;5109377;28;20194;-53
2023/12/17 04:28:16;;;;;;;26.07;15.90;;;;;;;-144.30;100.00;86985.16;5109406;28;20202;-60
2023/12/17 04:30:43;;;;;;;28.47;17.13;;;;;;;-144.30;100.00;86993.13;5114521;28;20580;-59
2023/12/17 04:33:10;;;;;;;25.67;16.23;;;;;;;-144.30;100.00;86987.16;5109160;28;20194;-58
2023/12/17 04:35:37;;;;;;;24.07;15.37;;;;;;;-144.30;100.00;86973.22;5112133;28;20264;-59
2023/12/17 04:38:04;;;;;;;26.87;16.43;;;;;;;-144.30;100.00;87013.00;5113311;28;20216;-58
2023/12/17 04:40:32;;;;;;;27.53;15.23;;;;;;;-144.30;100.00;86967.25;5113426;28;20289;-59
2023/12/17 04:42:59;;;;;;;23.90;15.77;;;;;;;-144.30;100.00;86995.09;5113686;28;20248;-58
2023/12/17 04:45:26;;;;;;;20.37;13.90;;;;;;;-144.30;100.00;86977.22;5113520;28;20286;-53
2023/12/17 04:47:53;;;;;;;23.10;14.37;;;;;;;-144.30;100.00;86969.25;5113563;28;20209;-58
2023/12/17 04:50:20;;;;;;;23.47;14.70;;;;;;;-144.30;100.00;86985.16;5111917;28;20199;-52
2023/12/17 04:52:47;;;;;;;24.90;14.33;;;;;;;-144.30;100.00;86979.19;5113057;28;20207;-53
2023/12/17 04:55:14;;;;;;;24.37;14.13;;;;;;;-144.30;100.00;86961.28;5112995;28;20215;-52
2023/12/17 04:57:42;;;;;;;22.53;13.23;;;;;;;-144.30;100.00;86971.25;5113129;28;20253;-59
2023/12/17 05:00:10;;;;;;;21.50;13.00;;;;;;;-144.30;100.00;86983.19;5112794;28;20209;-58
2023/12/17 05:02:37;;;;;;;27.00;14.33;;;;;;;-144.30;100.00;86973.22;5113011;28;20732;-59
2023/12/17 05:05:05;;;;;;;24.80;14.13;;;;;;;-144.30;100.00;86963.28;5112258;28;20191;-59
2023/12/17 05:07:32;;;;;;;20.77;13.03;;;;;;;-144.30;100.00;86981.19;5112815;28;20202;-61
2023/12/17 05:09:59;;;;;;;24.70;15.20;;;;;;;-144.30;100.00;86939.41;5113305;28;20194;-59
2023/12/17 05:12:26;;;;;;;25.77;16.60;;;;;;;-144.30;100.00;86977.22;5112746;28;20285;-59
2023/12/17 05:14:54;;;;;;;23.73;15.67;;;;;;;-144.30;100.00;86969.25;5113136;28;20307;-59
2023/12/17 05:17:21;;;;;;;23.73;15.60;;;;;;;-144.30;100.00;86959.31;5112958;28;20507;-52
2023/12/17 05:19:48;;;;;;;26.30;16.80;;;;;;;-144.30;100.00;86991.13;5112202;28;20323;-51
2023/12/17 05:22:15;;;;;;;30.23;17.13;;;;;;;-144.30;100.00;86851.91;5111741;28;20194;-59
2023/12/17 05:24:41;;;;;;;27.37;16.33;;;;;;;-144.30;100.00;86957.31;5112911;28;20663;-52
2023/12/17 05:27:08;;;;;;;23.40;15.37;;;;;;;-144.30;100.00;86979.19;5112497;28;20198;-53
2023/12/17 05:29:35;;;;;;;24.87;15.47;;;;;;;-144.30;100.00;86953.34;5112621;28;20202;-52
2023/12/17 05:32:04;;;;;;;27.37;16.47;;;;;;;-144.30;100.00;86931.47;5112547;28;20202;-53
2023/12/17 05:34:31;;;;;;;28.23;16.07;;;;;;;-144.30;100.00;86941.41;5112441;28;20223;-59
2023/12/17 05:36:58;;;;;;;26.67;16.27;;;;;;;-144.30;100.00;86983.19;5112716;28;20194;-58
2023/12/17 05:39:25;;;;;;;26.67;15.90;;;;;;;-144.30;100.00;86997.09;5112445;28;20195;-53
2023/12/17 05:41:52;;;;;;;27.57;16.40;;;;;;;-144.30;100.00;86965.28;5112705;28;20735;-53
2023/12/17 05:44:19;;;;;;;29.33;15.57;;;;;;;-144.30;100.00;86993.13;5112163;28;20299;-57
2023/12/17 05:46:47;;;;;;;28.47;16.50;;;;;;;-144.30;100.00;87022.94;5111340;28;20278;-57
2023/12/17 05:49:15;;;;;;;27.90;16.10;;;;;;;-144.30;100.00;86943.41;5111972;28;20536;-58
2023/12/17 05:51:43;;;;;;;28.47;16.83;;;;;;;-144.30;100.00;86987.16;5111927;28;20201;-57
2023/12/17 05:54:11;;;;;;;31.33;17.83;;;;;;;-144.30;100.00;86971.25;5112332;28;20662;-53
2023/12/17 05:56:42;;;;;;;34.40;18.40;;;;;;;-144.30;100.00;86987.16;5112112;28;20198;-53
2023/12/17 05:59:09;;;;;;;31.73;19.43;;;;;;;-144.30;100.00;86941.41;5112151;28;20630;-53
2023/12/17 06:01:36;;;;;;;34.87;18.37;;;;;;;-144.30;100.00;86965.28;5111918;28;20606;-53
2023/12/17 06:04:03;;;;;;;31.80;16.20;;;;;;;-144.30;100.00;86979.19;5106550;28;20210;-53
2023/12/17 06:06:32;;;;;;;21.60;15.27;;;;;;;-144.30;100.00;86961.28;5111985;27;20201;-52
2023/12/17 06:08:59;;;;;;;26.67;15.23;;;;;;;-144.30;100.00;86945.38;5111976;28;20205;-58
2023/12/17 06:11:25;;;;;;;22.57;14.03;;;;;;;-144.30;100.00;86965.28;5111585;28;20205;-58
2023/12/17 06:13:52;;;;;;;22.50;14.40;;;;;;;-144.30;100.00;86977.22;5111891;27;20198;-58
2023/12/17 06:16:19;;;;;;;20.70;13.33;;;;;;;-144.30;100.00;86943.41;5111265;28;20211;-58
2023/12/17 06:18:46;;;;;;;24.67;13.70;;;;;;;-144.30;100.00;86977.22;5111386;28;20596;-58
2023/12/17 06:21:22;;;;;;;23.13;14.40;;;;;;;-144.30;100.00;86935.44;5091320;28;20195;-53
2023/12/17 06:23:51;;;;;;;23.03;14.70;;;;;;;-144.30;100.00;86971.25;5091501;28;20684;-53
2023/12/17 06:26:19;;;;;;;29.57;14.83;;;;;;;-144.30;100.00;86965.28;5091784;28;20515;-53
2023/12/17 06:28:46;;;;;;;24.03;13.13;;;;;;;-144.30;100.00;86949.38;5091119;28;20256;-52
2023/12/17 06:31:13;;;;;;;26.20;12.27;;;;;;;-144.30;100.00;86957.31;5091373;28;20660;-53
2023/12/17 06:33:40;;;;;;;19.77;12.27;;;;;;;-144.30;100.00;86917.53;5092044;28;20197;-54
2023/12/17 06:36:07;;;;;;;18.43;11.07;;;;;;;-144.30;100.00;86939.41;5111020;28;20226;-54
2023/12/17 06:38:34;;;;;;;17.03;10.60;;;;;;;-144.30;100.00;86945.38;5110985;27;20191;-58
2023/12/17 06:41:03;;;;;;;20.33;11.40;;;;;;;-144.30;100.00;86955.31;5111268;28;20324;-59
2023/12/17 06:43:30;;;;;;;17.87;11.33;;;;;;;-144.30;100.00;86943.41;5111102;27;20239;-57
2023/12/17 06:45:57;;;;;;;18.17;12.27;;;;;;;-144.30;100.00;86943.41;5111433;28;20282;-53
2023/12/17 06:48:24;;;;;;;20.17;12.47;;;;;;;-144.30;100.00;86957.31;5111130;28;20232;-53
2023/12/17 06:50:51;;;;;;;20.43;12.07;;;;;;;-144.30;100.00;86969.25;5111348;28;20731;-58
2023/12/17 06:53:18;;;;;;;21.33;11.87;;;;;;;-144.30;100.00;86927.47;5111044;28;20230;-59
2023/12/17 06:55:45;;;;;;;23.63;13.03;;;;;;;-144.30;100.00;86947.38;5111420;28;20256;-58
2023/12/17 06:58:14;;;;;;;20.47;12.77;;;;;;;-144.30;100.00;86963.28;5110831;28;20203;-52
2023/12/17 07:00:41;;;;;;;23.73;12.50;;;;;;;-144.30;100.00;86881.75;5111052;28;20207;-53
2023/12/17 07:03:07;;;;;;;22.83;12.97;;;;;;;-144.30;100.00;86937.44;5111185;28;20247;-58
2023/12/17 07:05:34;;;;;;;22.50;12.33;;;;;;;-144.30;100.00;86933.44;5111240;28;20215;-56
2023/12/17 07:08:02;;;;;;;20.70;13.10;;;;;;;-144.30;100.00;86915.56;5111153;28;20287;-53
2023/12/17 07:10:28;;;;;;;19.73;12.33;;;;;;;-144.30;100.00;86913.56;5092918;28;22257;-51
2023/12/17 07:12:55;;;;;;;22.17;12.93;;;;;;;-144.30;100.00;86959.31;5110129;28;20592;-58
2023/12/17 07:15:24;;;;;;;19.67;12.57;;;;;;;-144.30;100.00;86919.53;5110528;28;20223;-58
2023/12/17 07:17:51;;;;;;;18.40;12.27;;;;;;;-144.30;100.00;86879.75;5110462;28;20199;-57
2023/12/17 07:20:18;;;;;;;20.10;11.73;;;;;;;-144.30;100.00;86995.09;5109598;28;20295;-57
2023/12/17 07:22:45;;;;;;;17.87;11.40;;;;;;;-144.30;100.00;86939.41;5110511;28;20317;-58
2023/12/17 07:25:12;;;;;;;21.60;11.97;;;;;;;-144.30;100.00;86929.47;5110113;28;20287;-58
2023/12/17 07:27:39;;;;;;;16.87;10.93;;;;;;;-144.30;100.00;86947.38;5110613;28;20623;-57
2023/12/17 07:30:07;;;;;;;20.67;11.73;;;;;;;-144.30;100.00;86931.47;5110215;28;20204;-58
2023/12/17 07:32:35;;;;;;;17.10;10.53;;;;;;;-144.30;100.00;86945.38;5110519;28;20208;-54
2023/12/17 07:35:03;;;;;;;17.73;11.50;;;;;;;-144.30;100.00;87106.50;5109959;28;20206;-54
2023/12/17 07:37:31;;;;;;;17.40;10.80;;;;;;;-144.30;100.00;86925.50;5110241;28;20693;-54
2023/12/17 07:39:58;;;;;;;15.37;10.63;;;;;;;-144.30;100.00;86937.44;5110336;28;20199;-58
2023/12/17 07:42:24;;;;;;;21.00;12.03;;;;;;;-144.30;100.00;86875.78;5109886;28;20226;-59
2023/12/17 07:44:51;;;;;;;17.23;11.37;;;;;;;-144.30;100.00;86929.47;5110119;28;20194;-58
2023/12/17 07:47:18;;;;;;;20.63;11.23;;;;;;;-144.30;100.00;86871.81;5110003;28;20291;-58
2023/12/17 07:49:47;;;;;;;17.60;11.10;;;;;;;-144.30;100.00;86895.66;5109505;28;20284;-59
2023/12/17 07:52:15;;;;;;;16.73;10.93;;;;;;;-144.30;99.60;86931.47;5109317;28;20701;-54
2023/12/17 07:54:41;;;;;;;18.57;11.70;;;;;;;-144.30;100.00;86915.56;5109770;28;20197;-53
2023/12/17 07:57:09;;;;;;;22.43;11.77;;;;;;;-144.30;100.00;86937.44;5109598;28;20219;-58
2023/12/17 07:59:36;;;;;;;20.83;12.07;;;;;;;-144.30;100.00;87305.38;5109898;28;20228;-58
2023/12/17 08:02:06;;;;;;;21.40;11.13;;;;;;;-144.30;99.54;86933.44;5109927;28;20578;-54
2023/12/17 08:04:35;;;;;;;14.43;9.47;;;;;;;-144.30;99.42;86947.38;5107052;28;20213;-53
2023/12/17 08:07:04;;;;;;;17.77;9.90;;;;;;;-144.30;99.20;86907.59;5109688;28;20290;-53
2023/12/17 08:09:34;;;;;;;14.03;8.80;;;;;;;-144.30;98.91;86915.56;5108974;28;20286;-53
2023/12/17 08:12:01;;;;;;;15.03;8.57;;;;;;;-144.30;98.40;86905.59;5110082;28;20194;-53
2023/12/17 08:14:29;;;;;;;11.93;8.43;;;;;;;-144.30;98.07;86915.56;5109918;28;20229;-54
2023/12/17 08:16:56;;;;;;;10.80;7.57;;;;;;;-144.30;97.58;86887.72;5109751;28;20225;-52
2023/12/17 08:19:23;;;;;;;10.83;7.17;;;;;;;-144.30;97.40;86756.44;5109533;28;20239;-52
2023/12/17 08:21:49;;;;;;;9.67;6.50;;;;;;;-144.30;97.31;86881.75;5109139;28;20725;-53
2023/12/17 08:24:18;;;;;;;8.30;6.10;;;;;;;-144.30;96.65;86895.66;5109076;28;20289;-59
2023/12/17 08:26:45;;;;;;;9.90;6.83;;;;;;;-144.30;96.79;86863.84;5109971;28;20722;-59
2023/12/17 08:29:12;;;;;;;9.03;6.43;;;;;;;-144.30;96.39;86855.88;5109610;28;20283;-58
2023/12/17 08:31:44;;;;;;;8.23;6.30;;;;;;;-144.30;96.31;86836.00;5109587;28;20746;-59
2023/12/17 08:34:11;;;;;;;7.77;5.73;;;;;;;-144.30;95.57;86871.81;5108729;28;20206;-54
2023/12/17 08:36:41;;;;;;;9.87;6.30;;;;;;;-144.30;95.71;86871.81;5110077;28;20777;-52
2023/12/17 08:39:08;;;;;;;11.37;6.73;;;;;;;-144.30;95.42;86855.88;5109133;28;20213;-59
2023/12/17 08:41:36;;;;;;;9.03;6.90;;;;;;;-144.30;95.18;86843.97;5109612;28;20219;-52
2023/12/17 08:44:03;;;;;;;7.93;6.33;;;;;;;-144.30;94.58;86531.72;5109358;28;20195;-54
2023/12/17 08:46:30;;;;;;;10.17;6.67;;;;;;;-144.30;93.42;86812.13;5109566;28;20186;-53
2023/12/17 08:48:57;;;;;;;6.30;5.27;;;;;;;-144.30;92.54;86808.16;5108829;28;20682;-54
2023/12/17 08:51:24;;;;;;;8.63;5.63;;;;;;;-144.30;91.92;86836.00;5108285;28;20191;-60
2023/12/17 08:53:51;;;;;;;7.10;5.73;;;;;;;-144.30;91.48;86838.00;5109157;28;20201;-59
2023/12/17 08:56:18;;;;;;;6.70;5.67;;;;;;;-144.30;91.44;86867.81;5108583;28;20216;-54
2023/12/17 08:58:46;;;;;;;9.63;6.50;;;;;;;-144.30;90.59;86839.97;5108914;28;20684;-53
2023/12/17 09:01:13;;;;;;;7.07;5.70;;;;;;;-144.30;90.97;86843.97;5108935;28;20195;-58
2023/12/17 09:03:41;;;;;;;6.20;5.60;;;;;;;-144.30;90.90;86832.03;5109890;28;20652;-60
2023/12/17 09:06:08;;;;;;;9.17;6.33;;;;;;;-144.30;91.16;86816.13;5109633;28;20198;-59
2023/12/17 09:08:35;;;;;;;9.00;6.90;;;;;;;-144.30;90.91;86834.00;5109762;28;20203;-60
2023/12/17 09:11:02;;;;;;;8.33;6.63;;;;;;;-144.30;90.60;86843.97;5109522;28;20222;-59
2023/12/17 09:13:29;;;;;;;9.50;6.97;;;;;;;-144.30;90.39;86806.16;5109438;28;20291;-58
2023/12/17 09:15:58;;;;;;;10.10;7.00;;;;;;;-144.30;90.44;86853.91;5109457;28;20258;-53
2023/12/17 09:18:24;;;;;;;11.17;7.33;;;;;;;-144.30;89.50;86812.13;5109456;28;20282;-59
2023/12/17 09:20:51;;;;;;;9.27;7.53;;;;;;;-144.30;89.60;86851.91;5109927;28;20194;-59
2023/12/17 09:23:18;;;;;;;13.27;7.00;;;;;;;-144.30;89.56;86859.88;5112887;28;20194;-58
2023/12/17 09:25:45;;;;;;;13.80;6.90;;;;;;;-144.30;89.03;86843.97;5112806;28;20197;-59
2023/12/17 09:28:12;;;;;;;10.40;7.10;;;;;;;-144.30;89.20;86812.13;5112814;28;20245;-59
2023/12/17 09:30:39;;;;;;;12.00;7.83;;;;;;;-144.30;89.62;86792.25;5112426;27;20198;-54
2023/12/17 09:33:07;;;;;;;10.03;7.50;;;;;;;-144.30;90.41;86841.97;5110698;28;20741;-55
2023/12/17 09:35:36;;;;;;;10.40;8.17;;;;;;;-144.30;90.29;86804.19;5112647;27;20474;-53
2023/12/17 09:38:04;;;;;;;13.60;8.57;;;;;;;-144.30;90.83;86847.94;5112670;28;20225;-59
2023/12/17 09:40:32;;;;;;;12.47;8.30;;;;;;;-144.30;91.09;86794.25;5112132;27;20199;-59
2023/12/17 09:43:00;;;;;;;12.77;8.60;;;;;;;-144.30;91.38;86816.13;5112642;27;20199;-59
2023/12/17 09:45:28;;;;;;;12.90;8.20;;;;;;;-144.30;91.25;86824.06;5112121;28;20247;-59
2023/12/17 09:47:54;;;;;;;8.47;6.67;;;;;;;-144.30;91.08;86782.31;5112570;28;20283;-59
2023/12/17 09:50:27;;;;;;;10.13;7.40;;;;;;;-144.30;91.39;86800.19;5112195;28;20689;-59
2023/12/17 09:52:54;;;;;;;11.03;7.50;;;;;;;-144.30;90.91;86814.13;5112200;28;20199;-59
2023/12/17 09:55:22;;;;;;;10.70;7.10;;;;;;;-144.30;89.79;86832.03;5112381;28;20198;-59
2023/12/17 09:57:49;;;;;;;10.77;7.00;;;;;;;-144.30;89.77;86812.13;5112252;28;20219;-60
2023/12/17 10:00:16;;;;;;;9.20;6.77;;;;;;;-144.30;89.31;86812.13;5111948;28;20201;-54
2023/12/17 10:02:43;;;;;;;13.43;7.13;;;;;;;-144.30;89.39;86780.31;5112282;28;20198;-54
2023/12/17 10:05:10;;;;;;;10.37;7.00;;;;;;;-144.30;89.05;86816.13;5111555;28;20278;-53
2023/12/17 10:07:39;;;;;;;9.10;6.80;;;;;;;-144.30;88.95;86672.94;5111263;28;20197;-60
2023/12/17 10:10:07;;;;;;;11.40;6.67;;;;;;;-144.30;89.06;86776.34;5111452;28;20201;-60
2023/12/17 10:12:35;;;;;;;10.07;7.37;;;;;;;-144.30;88.95;86800.19;5108947;28;20198;-59
2023/12/17 10:15:02;;;;;;;10.00;7.37;;;;;;;-144.30;89.38;86804.19;5112034;28;20521;-53
2023/12/17 10:17:30;;;;;;;10.67;6.80;;;;;;;-144.30;88.90;86822.09;5111481;28;20309;-54
2023/12/17 10:19:57;;;;;;;11.47;6.93;;;;;;;-144.30;88.13;86796.22;5111704;28;20285;-54
2023/12/17 10:22:24;;;;;;;12.10;7.90;;;;;;;-144.30;87.62;86796.22;5111707;28;20194;-60
2023/12/17 10:24:52;;;;;;;16.60;8.00;;;;;;;-144.30;87.24;86764.41;5111923;28;20198;-59
2023/12/17 10:27:22;;;;;;;9.73;7.27;;;;;;;-144.30;87.89;86796.22;5111410;28;20287;-60
2023/12/17 10:29:51;;;;;;;9.70;7.23;;;;;;;-144.30;87.64;86758.44;5111766;28;20245;-60
2023/12/17 10:32:22;;;;;;;10.77;7.93;;;;;;;-144.30;88.09;86796.22;5110920;28;20194;-59
2023/12/17 10:34:50;;;;;;;10.97;7.63;;;;;;;-144.30;87.93;86748.50;5111504;28;20198;-60
2023/12/17 10:37:19;;;;;;;11.73;8.20;;;;;;;-144.30;87.51;86760.44;5111326;28;20669;-59
2023/12/17 10:39:49;;;;;;;13.37;8.13;;;;;;;-144.30;87.79;86782.31;5111399;28;20198;-59
2023/12/17 10:42:17;;;;;;;9.73;7.57;;;;;;;-144.30;87.34;86772.34;5111013;28;20239;-58
2023/12/17 10:44:47;;;;;;;12.10;8.23;;;;;;;-144.30;87.14;86766.41;5111364;28;20289;-58
2023/12/17 10:47:16;;;;;;;11.50;7.10;;;;;;;-144.30;88.07;86792.25;5111155;28;20193;-58
2023/12/17 10:49:44;;;;;;;13.30;8.80;;;;;;;-144.30;87.96;86802.19;5111549;28;20577;-54
2023/12/17 10:52:12;;;;;;;11.43;8.33;;;;;;;-144.30;88.24;86792.25;5111187;28;20221;-53
2023/12/17 10:54:40;;;;;;;14.23;8.93;;;;;;;-144.30;87.62;86768.38;5111175;28;20584;-52
2023/12/17 10:57:12;;;;;;;15.03;9.23;;;;;;;-144.30;87.84;86792.25;5110719;28;20602;-54
2023/12/17 10:59:44;;;;;;;12.00;8.20;;;;;;;-144.30;87.27;86756.44;5110845;28;20190;-53